createdAt,value
2022-11-22T00:03:31.305Z,7.07
2022-11-22T00:13:31.646Z,7.09
2022-11-22T00:23:31.689Z,7.20
2022-11-22T00:33:32.007Z,7.09
2022-11-22T00:43:32.038Z,7.07
2022-11-22T00:53:32.386Z,7.05
2022-11-22T01:03:32.413Z,6.99
2022-11-22T01:13:32.865Z,7.09
2022-11-22T01:23:32.923Z,6.98
2022-11-22T01:33:34.280Z,6.99
2022-11-22T01:43:33.307Z,7.07
2022-11-22T01:53:33.687Z,7.10
2022-11-22T02:03:33.745Z,7.05
2022-11-22T02:13:34.170Z,6.95
2022-11-22T02:23:34.248Z,6.89
2022-11-22T02:33:36.379Z,6.99
2022-11-22T02:43:34.414Z,6.85
2022-11-22T02:53:34.817Z,6.74
2022-11-22T03:03:34.831Z,6.71
2022-11-22T03:13:35.180Z,6.56
2022-11-22T03:23:35.228Z,6.56
2022-11-22T03:33:35.562Z,6.56
2022-11-22T03:43:35.585Z,6.52
2022-11-22T03:53:35.943Z,6.54
2022-11-22T04:03:35.959Z,6.56
2022-11-22T04:13:36.388Z,6.62
2022-11-22T04:23:36.416Z,7.24
2022-11-22T04:33:37.791Z,7.05
2022-11-22T04:43:36.813Z,6.88
2022-11-22T04:53:37.128Z,6.88
2022-11-22T05:03:37.148Z,6.79
2022-11-22T05:13:37.499Z,6.80
2022-11-22T05:23:37.516Z,6.69
2022-11-22T05:33:38.899Z,6.76
2022-11-22T05:43:37.954Z,7.17
2022-11-22T05:53:38.338Z,6.73
2022-11-22T06:03:38.388Z,6.71
2022-11-22T06:13:40.881Z,6.66
2022-11-22T06:23:38.705Z,6.58
2022-11-22T06:33:38.992Z,6.54
2022-11-22T06:43:42.493Z,6.73
2022-11-22T06:53:47.219Z,6.84
2022-11-22T07:03:40.196Z,6.66
2022-11-22T07:13:39.530Z,6.54
2022-11-22T07:23:39.571Z,6.61
2022-11-22T07:33:39.894Z,6.49
2022-11-22T07:43:39.938Z,6.43
2022-11-22T07:53:40.264Z,6.36
2022-11-22T08:03:40.380Z,6.38
2022-11-22T08:13:40.532Z,6.49
2022-11-22T08:23:40.596Z,6.61
2022-11-22T08:33:40.907Z,6.76
2022-11-22T08:43:40.927Z,6.85
2022-11-22T08:53:41.273Z,6.79
2022-11-22T09:03:41.334Z,6.77
2022-11-22T09:13:41.705Z,6.80
2022-11-22T09:23:41.731Z,6.73
2022-11-22T09:33:42.010Z,6.79
2022-11-22T09:43:42.035Z,6.97
2022-11-22T09:53:42.273Z,6.99
2022-11-22T10:03:42.595Z,7.15
2022-11-22T10:13:42.794Z,7.35
2022-11-22T10:23:42.962Z,7.32
2022-11-22T10:33:44.804Z,7.55
2022-11-22T10:43:43.436Z,7.12
2022-11-22T10:53:43.614Z,7.53
2022-11-22T11:03:43.729Z,7.60
2022-11-22T11:13:43.980Z,7.68
2022-11-22T11:23:44.028Z,7.63
2022-11-22T11:33:44.148Z,7.86
2022-11-22T11:43:44.405Z,8.04
2022-11-22T11:53:44.644Z,8.02
2022-11-22T12:03:44.954Z,8.05
2022-11-22T12:14:12.186Z,8.25
2022-11-22T12:23:50.761Z,8.30
2022-11-22T12:33:46.379Z,8.33
2022-11-22T12:43:45.677Z,8.28
2022-11-22T12:53:45.890Z,8.28
2022-11-22T13:03:46.003Z,8.37
2022-11-22T13:13:46.054Z,8.40
2022-11-22T13:23:46.391Z,8.04
2022-11-22T13:33:46.429Z,7.80
2022-11-22T13:43:46.774Z,7.67
2022-11-22T13:53:46.815Z,7.67
2022-11-22T14:03:47.116Z,7.61
2022-11-22T14:13:47.163Z,7.43
2022-11-22T14:23:47.499Z,7.34
2022-11-22T14:33:47.531Z,7.31
2022-11-22T14:43:47.871Z,7.32
2022-11-22T14:53:47.915Z,7.32
2022-11-22T15:03:50.173Z,7.17
2022-11-22T15:13:48.424Z,7.21
2022-11-22T16:03:50.178Z,7.02
2022-11-22T16:13:49.510Z,6.92
2022-11-22T16:23:49.409Z,6.94
2022-11-22T16:33:49.934Z,6.97
2022-11-22T16:43:50.038Z,6.92
2022-11-22T16:53:50.853Z,6.85
2022-11-22T17:03:50.250Z,6.91
2022-11-22T17:13:50.683Z,6.91
2022-11-22T17:23:50.834Z,6.64
2022-11-22T17:33:51.716Z,6.61
2022-11-22T17:43:51.813Z,6.51
2022-11-22T17:53:50.970Z,6.33
2022-11-22T18:03:51.241Z,6.36
2022-11-22T18:13:54.858Z,6.36
2022-11-22T18:23:51.615Z,6.46
2022-11-22T18:33:51.824Z,6.41
2022-11-22T18:43:51.993Z,6.38
2022-11-22T18:53:53.694Z,6.36
2022-11-22T19:03:52.259Z,6.25
2022-11-22T19:13:52.576Z,6.27
2022-11-22T19:23:52.719Z,6.18
2022-11-22T19:33:53.044Z,6.15
2022-11-22T19:43:54.010Z,6.30
2022-11-22T19:53:53.250Z,6.21
2022-11-22T20:03:53.220Z,6.30
2022-11-22T20:13:53.455Z,6.15
2022-11-22T20:23:54.477Z,6.14
2022-11-22T20:33:55.821Z,5.96
2022-11-22T20:43:55.644Z,5.97
2022-11-22T20:53:54.349Z,6.00
2022-11-22T21:03:54.086Z,5.91
2022-11-22T21:13:54.353Z,5.91
2022-11-22T21:23:54.579Z,5.93
2022-11-22T21:33:54.750Z,6.08
2022-11-22T21:43:54.767Z,6.09
2022-11-22T21:53:55.094Z,5.96
2022-11-22T22:03:55.134Z,5.91
2022-11-22T22:13:56.503Z,5.79
2022-11-22T22:23:55.520Z,5.76
2022-11-22T22:33:55.946Z,5.90
2022-11-22T22:43:55.980Z,5.63
2022-11-22T22:53:56.318Z,5.60
2022-11-22T23:03:56.368Z,5.57
2022-11-22T23:13:56.679Z,5.54
2022-11-22T23:23:56.710Z,5.83
2022-11-22T23:33:57.046Z,5.79
2022-11-22T23:43:57.104Z,5.76
2022-11-22T23:53:57.533Z,5.67
